Time;durP1;ratioP1;P1;durP2;ratioP2;P2;SDS_P1;SDS_P2;PMS_P1;PMS_P2;Temp;Humidity;BMP_temperature;BMP_pressure;BME280_temperature;BME280_humidity;BME280_pressure;Samples;Min_cycle;Max_cycle;Signal;HPM_P1;HPM_P2
2022/10/17 00:01:07;;;;;;;39.30;31.50;;;13.00;99.90;;;;;;5058717;28;20032;-51
2022/10/17 00:03:35;;;;;;;40.75;30.52;;;12.80;99.90;;;;;;5054900;28;20048;-50
2022/10/17 00:06:06;;;;;;;36.30;29.15;;;12.70;99.90;;;;;;5057387;28;20060;-50
2022/10/17 00:08:31;;;;;;;34.17;26.95;;;12.70;99.90;;;;;;4980562;28;20041;-50
2022/10/17 00:11:00;;;;;;;33.90;25.67;;;12.70;99.90;;;;;;5035940;28;20098;-51
2022/10/17 00:13:25;;;;;;;33.65;24.67;;;12.80;99.90;;;;;;4975312;28;20442;-52
2022/10/17 00:15:52;;;;;;;32.30;25.00;;;12.70;99.90;;;;;;4957723;28;20039;-51
2022/10/17 00:18:17;;;;;;;38.42;26.08;;;12.70;99.90;;;;;;4945159;28;20580;-53
2022/10/17 03:03:22;;;;;;;25.02;16.55;;;12.50;99.90;;;;;;5045587;28;20056;-51
2022/10/17 03:05:49;;;;;;;26.73;18.23;;;12.40;99.90;;;;;;5032388;28;20072;-52
2022/10/17 03:08:15;;;;;;;24.65;18.98;;;12.30;99.90;;;;;;5060080;28;20048;-52
2022/10/17 03:10:40;;;;;;;25.45;19.33;;;12.30;99.90;;;;;;5056179;28;20356;-52
2022/10/17 03:13:06;;;;;;;25.02;18.27;;;12.30;99.90;;;;;;5062139;28;20087;-51
2022/10/17 03:15:32;;;;;;;23.33;17.95;;;12.00;99.90;;;;;;5037441;28;20029;-51
2022/10/17 03:17:57;;;;;;;22.98;16.70;;;12.00;99.90;;;;;;5061004;28;20037;-52
2022/10/17 03:20:23;;;;;;;24.15;16.83;;;12.00;99.90;;;;;;5056816;28;20032;-51
2022/10/17 03:22:49;;;;;;;24.08;16.63;;;12.10;99.90;;;;;;5057607;28;20049;-51
2022/10/17 03:25:14;;;;;;;29.23;17.55;;;12.10;99.90;;;;;;5061666;28;20036;-52
2022/10/17 03:27:40;;;;;;;26.85;17.95;;;12.10;99.90;;;;;;5039059;28;20033;-52
2022/10/17 03:30:07;;;;;;;22.33;17.40;;;12.00;99.90;;;;;;5055653;28;20029;-51
2022/10/17 03:32:33;;;;;;;25.40;17.10;;;11.90;99.90;;;;;;5021603;28;20468;-51
2022/10/17 03:34:59;;;;;;;25.45;17.10;;;11.90;99.90;;;;;;5058518;28;20116;-52
2022/10/17 03:37:25;;;;;;;25.52;16.42;;;11.90;99.90;;;;;;5057796;28;20443;-52
2022/10/17 03:39:50;;;;;;;23.85;16.17;;;11.90;99.90;;;;;;5053848;28;20032;-52
2022/10/17 03:42:16;;;;;;;23.67;16.00;;;12.10;99.90;;;;;;5059781;28;20025;-52
2022/10/17 03:44:42;;;;;;;22.70;16.25;;;12.10;99.90;;;;;;5039558;28;20041;-51
2022/10/17 03:47:07;;;;;;;21.77;17.27;;;12.10;99.90;;;;;;5057565;28;20074;-52
2022/10/17 03:49:33;;;;;;;21.77;17.02;;;11.80;99.90;;;;;;5058068;28;20021;-51
2022/10/17 03:51:59;;;;;;;25.27;18.17;;;11.60;99.90;;;;;;5054466;28;20024;-51
2022/10/17 03:54:24;;;;;;;24.55;18.10;;;11.60;99.90;;;;;;5039759;28;20037;-52
2022/10/17 03:56:50;;;;;;;23.48;16.85;;;11.70;99.90;;;;;;5036805;28;20123;-51
2022/10/17 03:59:16;;;;;;;22.42;16.35;;;11.80;99.90;;;;;;5055121;28;20110;-51
2022/10/17 04:01:42;;;;;;;24.38;17.75;;;11.80;99.90;;;;;;5053349;28;20028;-52
2022/10/17 04:04:08;;;;;;;23.98;17.20;;;12.00;99.90;;;;;;5036470;28;20566;-51
2022/10/17 04:06:35;;;;;;;23.35;16.83;;;12.00;99.90;;;;;;5062032;28;20530;-52
2022/10/17 04:09:01;;;;;;;24.40;16.38;;;12.00;99.90;;;;;;5023823;28;20048;-53
2022/10/17 04:11:27;;;;;;;23.50;17.17;;;11.90;99.90;;;;;;5057480;28;20032;-52
2022/10/17 04:13:55;;;;;;;24.83;16.23;;;11.90;99.90;;;;;;5057440;28;20029;-53
2022/10/17 04:16:21;;;;;;;20.83;15.45;;;12.00;99.90;;;;;;5053133;28;20035;-53
2022/10/17 04:18:51;;;;;;;25.13;18.05;;;12.00;99.90;;;;;;5056986;28;20055;-50
2022/10/17 04:21:17;;;;;;;23.73;16.27;;;11.90;99.90;;;;;;5055240;28;20052;-51
2022/10/17 04:23:43;;;;;;;23.25;15.60;;;11.50;99.90;;;;;;5062419;28;20480;-50
2022/10/17 04:26:08;;;;;;;22.45;15.90;;;11.70;99.90;;;;;;5057595;28;20031;-50
2022/10/17 04:28:35;;;;;;;22.05;15.82;;;11.70;99.90;;;;;;5055399;28;20056;-50
2022/10/17 04:31:03;;;;;;;23.55;17.05;;;11.60;99.90;;;;;;5048195;28;20029;-50
2022/10/17 04:33:29;;;;;;;29.23;21.05;;;11.70;99.90;;;;;;5054419;28;20028;-50
2022/10/17 04:35:58;;;;;;;57.20;35.75;;;11.50;99.90;;;;;;5052183;28;20031;-50
2022/10/17 04:38:25;;;;;;;168.13;91.03;;;11.60;99.90;;;;;;5057085;28;20045;-50
2022/10/17 04:40:51;;;;;;;167.27;93.32;;;11.60;99.90;;;;;;5056189;28;20028;-51
2022/10/17 04:43:16;;;;;;;197.95;107.70;;;11.40;99.90;;;;;;5057164;28;20090;-51
2022/10/17 04:45:42;;;;;;;113.32;64.38;;;11.50;99.90;;;;;;5051458;28;20040;-51
2022/10/17 04:48:08;;;;;;;93.13;54.40;;;11.40;99.90;;;;;;5033234;28;20040;-51
2022/10/17 04:50:33;;;;;;;29.83;20.70;;;11.50;99.90;;;;;;5056919;28;20484;-51
2022/10/17 04:52:59;;;;;;;24.27;17.98;;;11.50;99.90;;;;;;5037478;28;20045;-51
2022/10/17 04:55:25;;;;;;;27.58;18.70;;;11.50;99.90;;;;;;5055131;28;20107;-51
2022/10/17 04:57:51;;;;;;;28.15;18.63;;;;;;;;;;5058817;28;20049;-50
2022/10/17 05:00:17;;;;;;;24.88;18.58;;;;;;;;;;5055102;28;20021;-51
2022/10/17 05:02:43;;;;;;;19.52;14.88;;;10.50;99.90;;;;;;5053187;28;20582;-51
2022/10/17 05:05:08;;;;;;;20.10;14.88;;;10.40;99.90;;;;;;5053108;28;20100;-50
2022/10/17 05:07:34;;;;;;;18.63;15.25;;;10.30;99.90;;;;;;5059632;28;20025;-51
2022/10/17 05:10:00;;;;;;;16.77;13.07;;;10.30;99.90;;;;;;5059474;28;20087;-51
2022/10/17 05:12:25;;;;;;;19.00;13.98;;;10.30;99.90;;;;;;5053045;28;20024;-51
2022/10/17 05:14:51;;;;;;;21.08;14.82;;;10.50;99.90;;;;;;5056598;28;20024;-52
2022/10/17 05:17:17;;;;;;;18.63;14.65;;;10.60;99.90;;;;;;5054039;28;20411;-51
2022/10/17 05:19:43;;;;;;;19.23;14.73;;;10.70;99.90;;;;;;5054737;28;20052;-51
2022/10/17 05:22:08;;;;;;;21.17;14.50;;;10.80;99.90;;;;;;5026848;28;20037;-52
2022/10/17 05:24:34;;;;;;;36.28;27.15;;;10.80;99.90;;;;;;5034297;28;20051;-51
2022/10/17 05:27:00;;;;;;;26.98;18.10;;;10.80;99.90;;;;;;5056386;28;20033;-51
2022/10/17 05:29:25;;;;;;;27.77;17.15;;;10.70;99.90;;;;;;5058431;28;20017;-52
2022/10/17 05:31:51;;;;;;;20.02;16.20;;;10.50;99.90;;;;;;5052010;28;20097;-52
2022/10/17 05:34:17;;;;;;;22.65;15.48;;;10.50;99.90;;;;;;5055281;28;20036;-52
2022/10/17 05:36:43;;;;;;;18.90;14.63;;;11.70;99.90;;;;;;5035510;28;20045;-52
2022/10/17 05:39:10;;;;;;;17.45;13.30;;;13.10;99.90;;;;;;5055310;28;20021;-52
2022/10/17 05:41:35;;;;;;;17.05;12.98;;;14.60;99.90;;;;;;5056603;28;20032;-52
2022/10/17 05:44:01;;;;;;;20.63;12.55;;;15.90;99.90;;;;;;5053185;28;20502;-51
2022/10/17 05:46:27;;;;;;;14.20;11.13;;;17.30;99.90;;;;;;5055196;28;20099;-52
2022/10/17 05:48:54;;;;;;;15.57;11.80;;;18.10;99.90;;;;;;5053934;28;20108;-52
2022/10/17 05:51:20;;;;;;;21.00;11.85;;;19.50;99.90;;;;;;5052910;28;20032;-52
2022/10/17 05:53:46;;;;;;;15.20;11.20;;;;;;;;;;5049844;28;20021;-52
2022/10/17 05:56:13;;;;;;;15.15;11.48;;;;;;;;;;5055376;28;20106;-52
2022/10/17 05:58:41;;;;;;;13.70;10.68;;;21.80;99.90;;;;;;5045316;28;20457;-52
2022/10/17 06:01:07;;;;;;;17.85;12.02;;;22.30;99.90;;;;;;5055387;28;20028;-52
2022/10/17 06:03:33;;;;;;;17.80;10.88;;;23.10;99.90;;;;;;5051043;28;20048;-52
2022/10/17 06:06:07;;;;;;;18.15;10.93;;;;;;;;;;5038628;28;20048;-52
2022/10/17 06:08:33;;;;;;;19.20;13.30;;;24.70;99.90;;;;;;5055043;28;20099;-49
2022/10/17 06:10:59;;;;;;;14.82;11.07;;;;;;;;;;5055157;28;20029;-50
2022/10/17 06:13:25;;;;;;;17.17;13.02;;;25.30;99.90;;;;;;5052862;28;20051;-50
2022/10/17 06:15:51;;;;;;;22.65;17.58;;;24.90;96.50;;;;;;5053362;28;20076;-50
2022/10/17 06:18:18;;;;;;;23.25;18.40;;;;;;;;;;5055509;28;20029;-50
2022/10/17 06:20:43;;;;;;;23.85;17.08;;;25.90;99.90;;;;;;5052594;28;20103;-50
2022/10/17 06:23:10;;;;;;;1106.20;999.90;;;;;;;;;;5054553;28;20108;-50
2022/10/17 06:25:35;;;;;;;1143.70;999.90;;;25.90;93.70;;;;;;5054831;28;20388;-50
2022/10/17 06:28:01;;;;;;;805.28;748.72;;;;;;;;;;5047452;28;20022;-50
2022/10/17 06:30:27;;;;;;;524.13;476.63;;;27.10;93.30;;;;;;5035728;28;20503;-50
2022/10/17 06:32:53;;;;;;;95.45;73.97;;;27.80;92.50;;;;;;5039815;28;20029;-50
2022/10/17 06:35:19;;;;;;;412.40;367.95;;;27.70;91.80;;;;;;4978375;28;20127;-53
2022/10/17 06:37:45;;;;;;;20.13;14.75;;;27.50;91.90;;;;;;4973736;28;20089;-50
2022/10/17 06:40:13;;;;;;;20.63;16.33;;;;;;;;;;4989635;28;20034;-52
2022/10/17 06:42:40;;;;;;;17.98;13.07;;;28.70;90.60;;;;;;4994103;28;20104;-49
2022/10/17 06:45:06;;;;;;;17.38;13.57;;;;;;;;;;4991750;28;20026;-51
2022/10/17 06:47:33;;;;;;;53.22;30.80;;;;;;;;;;4973099;28;20042;-51
2022/10/17 06:49:59;;;;;;;18.35;14.10;;;;;;;;;;4977010;28;20041;-53
2022/10/17 06:52:25;;;;;;;18.90;13.98;;;;;;;;;;4994092;28;20072;-50
2022/10/17 06:54:51;;;;;;;14.63;12.50;;;29.90;99.90;;;;;;4991970;28;20102;-49
2022/10/17 06:57:17;;;;;;;13.85;12.35;;;30.00;87.10;;;;;;4976288;28;20568;-50
2022/10/17 06:59:43;;;;;;;18.85;13.07;;;27.40;85.10;;;;;;4991629;28;20045;-49
2022/10/17 07:02:10;;;;;;;16.23;12.45;;;26.50;88.60;;;;;;4990883;28;20034;-46
2022/10/17 07:16:18;;;;;;;15.30;11.30;;;30.50;85.40;;;;;;5108586;27;20415;-51
2022/10/17 07:18:47;;;;;;;16.50;11.98;;;31.00;87.10;;;;;;5075121;28;20138;-50
2022/10/17 07:21:13;;;;;;;14.35;11.57;;;28.50;84.60;;;;;;5068296;28;20082;-51
2022/10/17 07:23:40;;;;;;;13.75;10.63;;;;;;;;;;5065293;28;20429;-49
2022/10/17 07:26:09;;;;;;;15.38;11.25;;;31.20;84.00;;;;;;5066621;28;20047;-49
2022/10/17 07:28:36;;;;;;;13.43;11.18;;;;;;;;;;5066871;28;20039;-49
2022/10/17 07:31:05;;;;;;;14.30;10.90;;;32.10;82.20;;;;;;5063783;28;20025;-49
2022/10/17 07:33:31;;;;;;;12.38;10.55;;;30.70;82.00;;;;;;5065740;28;20028;-48
2022/10/17 07:35:59;;;;;;;18.98;12.32;;;31.90;82.50;;;;;;5078559;28;20048;-50
2022/10/17 07:38:25;;;;;;;13.18;11.25;;;29.60;81.00;;;;;;5061051;28;20372;-52
2022/10/17 07:40:56;;;;;;;14.60;11.15;;;29.80;83.90;;;;;;5085398;28;20045;-51
2022/10/17 07:43:23;;;;;;;18.55;13.32;;;;;;;;;;5065794;28;20376;-50
2022/10/17 07:45:48;;;;;;;14.77;11.50;;;31.30;81.30;;;;;;5065192;28;20044;-49
2022/10/17 07:48:14;;;;;;;13.68;10.55;;;30.00;81.50;;;;;;5067472;28;20511;-51
2022/10/17 07:50:40;;;;;;;12.63;10.68;;;31.00;82.80;;;;;;5064434;28;20560;-49
2022/10/17 07:53:06;;;;;;;11.90;10.40;;;31.40;82.20;;;;;;5068015;28;20580;-50
2022/10/17 07:55:31;;;;;;;12.85;11.38;;;31.20;81.90;;;;;;5068028;28;20027;-51
2022/10/17 07:57:59;;;;;;;11.57;10.38;;;;;;;;;;5068286;28;20013;-49
2022/10/17 08:00:25;;;;;;;13.77;11.43;;;31.50;98.00;;;;;;5063534;28;20040;-48
2022/10/17 08:02:51;;;;;;;12.43;10.23;;;31.20;91.40;;;;;;5055538;28;20041;-52
2022/10/17 08:05:17;;;;;;;12.15;10.93;;;29.80;89.40;;;;;;5062910;28;20400;-50
2022/10/17 08:07:43;;;;;;;15.15;10.70;;;29.80;80.80;;;;;;5066384;28;20049;-51
2022/10/17 08:10:12;;;;;;;13.13;9.80;;;30.60;82.00;;;;;;5032787;28;20091;-50
2022/10/17 08:12:38;;;;;;;11.43;10.30;;;;;;;;;;5068007;28;20037;-49
2022/10/17 08:15:05;;;;;;;11.45;9.73;;;31.30;87.70;;;;;;5076579;28;20118;-49
2022/10/17 08:17:33;;;;;;;13.27;10.65;;;31.30;80.00;;;;;;5063990;28;20107;-50
2022/10/17 08:19:59;;;;;;;11.27;10.07;;;;;;;;;;5047110;28;20025;-47
2022/10/17 08:22:25;;;;;;;11.35;9.40;;;;;;;;;;5046953;28;20399;-50
2022/10/17 08:24:51;;;;;;;12.70;9.18;;;30.00;80.60;;;;;;5052717;28;20051;-49
2022/10/17 08:27:22;;;;;;;13.65;9.05;;;30.10;80.00;;;;;;5055251;28;20025;-50
2022/10/17 08:29:51;;;;;;;11.25;10.05;;;;;;;;;;5053047;28;20055;-52
2022/10/17 08:32:17;;;;;;;11.00;9.18;;;;;;;;;;5053462;28;20127;-48
2022/10/17 08:34:43;;;;;;;14.85;10.05;;;28.70;81.30;;;;;;5052590;28;20029;-48
2022/10/17 08:37:09;;;;;;;11.85;9.82;;;;;;;;;;5050179;28;20479;-48
2022/10/17 08:39:35;;;;;;;11.57;10.38;;;;;;;;;;5064597;28;20479;-48
2022/10/17 11:27:16;;;;;;;8.10;5.55;;;28.60;76.40;;;;;;5037370;28;20067;-53
2022/10/17 11:29:44;;;;;;;10.05;5.82;;;28.60;77.80;;;;;;5045836;28;20496;-52
2022/10/17 11:32:33;;;;;;;8.60;5.38;;;28.70;78.10;;;;;;5041690;28;20120;-54
2022/10/17 11:35:21;;;;;;;7.55;5.00;;;28.80;77.70;;;;;;5045160;28;20025;-53
2022/10/17 11:38:03;;;;;;;8.05;4.78;;;28.40;77.90;;;;;;5047632;28;20029;-54
2022/10/17 11:54:25;;;;;;;7.78;4.80;;;28.70;84.10;;;;;;5108455;27;20185;-52
2022/10/17 11:56:51;;;;;;;6.53;4.28;;;28.40;78.40;;;;;;5065374;28;20379;-51
2022/10/17 11:59:36;;;;;;;6.35;4.13;;;;;;;;;;5066052;28;20025;-53
2022/10/17 12:02:08;;;;;;;8.02;4.70;;;27.70;78.40;;;;;;5064264;28;20044;-51
2022/10/17 12:05:16;;;;;;;10.73;4.43;;;27.70;78.90;;;;;;5064487;28;20044;-53
2022/10/17 12:07:48;;;;;;;7.43;4.78;;;;;;;;;;5027091;28;20057;-53
2022/10/17 12:10:40;;;;;;;8.02;4.47;;;;;;;;;;5026723;28;20139;-53
2022/10/17 12:13:24;;;;;;;5.95;4.40;;;;;;;;;;5004990;28;20448;-51
2022/10/17 12:15:50;;;;;;;7.35;4.70;;;28.20;78.70;;;;;;5029480;28;20080;-53
2022/10/17 12:18:16;;;;;;;8.85;4.50;;;28.50;80.20;;;;;;5028797;28;20045;-53
2022/10/17 12:20:42;;;;;;;6.20;5.45;;;;;;;;;;5028859;28;20029;-50
2022/10/17 12:23:11;;;;;;;11.85;5.60;;;28.50;77.60;;;;;;5028244;28;20095;-51
2022/10/17 12:25:48;;;;;;;5.82;4.68;;;28.40;78.40;;;;;;5028689;28;20103;-53
2022/10/17 12:28:39;;;;;;;9.18;5.72;;;28.30;79.90;;;;;;4991918;28;20033;-54
2022/10/17 12:31:17;;;;;;;6.50;5.00;;;28.40;84.30;;;;;;4937722;29;20051;-52
2022/10/17 12:33:56;;;;;;;7.45;4.93;;;28.10;88.60;;;;;;4937482;29;20047;-52
2022/10/17 12:36:23;;;;;;;5.93;4.63;;;;;;;;;;4925652;29;20487;-53
2022/10/17 12:38:51;;;;;;;7.68;5.22;;;26.70;79.10;;;;;;4936225;29;20075;-52
2022/10/17 12:41:41;;;;;;;12.68;5.43;;;;;;;;;;4934770;29;20120;-51
2022/10/17 12:44:13;;;;;;;6.72;5.13;;;;;;;;;;4947702;28;20058;-53
2022/10/17 12:46:44;;;;;;;7.00;5.32;;;;;;;;;;4966077;28;20387;-53
2022/10/17 12:49:19;;;;;;;9.52;5.13;;;;;;;;;;4957926;28;20133;-52
2022/10/17 12:52:08;;;;;;;6.68;5.22;;;;;;;;;;4960488;28;20510;-54
2022/10/17 12:54:41;;;;;;;6.65;4.03;;;;;;;;;;4893058;29;20076;-54
2022/10/17 12:57:16;;;;;;;6.47;4.82;;;;;;;;;;4880202;29;20060;-51
2022/10/17 12:59:44;;;;;;;10.52;4.78;;;;;;;;;;4872255;29;20047;-50
2022/10/17 13:02:16;;;;;;;8.05;4.90;;;;;;;;;;4895874;29;20049;-52
2022/10/17 13:04:42;;;;;;;6.78;4.20;;;;;;;;;;4894507;29;20071;-54
2022/10/17 13:07:17;;;;;;;6.32;4.78;;;;;;;;;;4901345;28;20048;-50
2022/10/17 13:09:44;;;;;;;8.93;4.47;;;26.60;80.00;;;;;;4987543;28;20041;-53
2022/10/17 13:12:17;;;;;;;10.20;4.93;;;26.30;78.60;;;;;;4988294;28;20097;-51
2022/10/17 13:14:45;;;;;;;7.78;4.75;;;26.30;79.20;;;;;;4988657;28;20429;-51
2022/10/17 13:17:22;;;;;;;6.35;4.45;;;26.30;78.90;;;;;;4989720;28;20022;-52
2022/10/17 13:19:48;;;;;;;12.00;5.75;;;;;;;;;;4991506;28;20050;-51
2022/10/17 13:22:17;;;;;;;7.40;5.40;;;;;;;;;;4985561;28;20086;-53
2022/10/17 13:24:43;;;;;;;7.35;4.63;;;;;;;;;;4956980;28;20042;-52
2022/10/17 13:27:21;;;;;;;10.38;5.43;;;;;;;;;;4992593;28;20093;-53
2022/10/17 13:29:47;;;;;;;6.38;4.75;;;26.60;99.90;;;;;;4989557;28;20500;-50
2022/10/17 13:32:13;;;;;;;6.57;5.00;;;;;;;;;;5031417;28;20068;-53
2022/10/17 13:34:39;;;;;;;7.90;5.50;;;;;;;;;;5052553;28;20036;-52
2022/10/17 13:37:07;;;;;;;8.32;4.93;;;;;;;;;;5066765;28;20045;-52
2022/10/17 13:39:35;;;;;;;7.70;4.80;;;;;;;;;;5052339;28;20479;-51
2022/10/17 13:42:01;;;;;;;9.57;5.00;;;;;;;;;;5049108;28;20396;-52
2022/10/17 13:44:31;;;;;;;11.52;5.35;;;;;;;;;;5052098;28;20033;-53
2022/10/17 13:46:57;;;;;;;13.82;5.45;;;;;;;;;;5052560;28;20061;-53
2022/10/17 13:49:41;;;;;;;8.70;6.10;;;;;;;;;;5046564;28;20032;-51
2022/10/17 13:52:14;;;;;;;8.88;6.15;;;;;;;;;;5064366;28;20067;-52
2022/10/17 13:54:41;;;;;;;8.98;4.72;;;;;;;;;;5049793;28;20049;-50
2022/10/17 13:57:22;;;;;;;7.35;4.40;;;;;;;;;;5049635;28;20041;-52
2022/10/17 13:59:50;;;;;;;7.75;4.68;;;;;;;;;;5048557;28;20516;-53
2022/10/17 14:02:23;;;;;;;5.90;4.43;;;26.40;99.90;;;;;;5052439;28;20037;-52
2022/10/17 14:05:19;;;;;;;7.03;4.60;;;26.00;79.70;;;;;;5061096;28;20167;-50
2022/10/17 14:08:03;;;;;;;9.80;5.30;;;25.90;80.10;;;;;;5006222;28;20053;-51
2022/10/17 14:10:35;;;;;;;6.93;4.70;;;25.90;79.80;;;;;;5006072;28;20109;-56
2022/10/17 14:13:03;;;;;;;8.27;6.32;;;25.90;79.80;;;;;;5010868;28;20049;-53
2022/10/17 14:15:32;;;;;;;8.60;4.93;;;26.00;80.80;;;;;;5003475;28;20030;-53
2022/10/17 14:18:03;;;;;;;9.23;4.95;;;25.90;80.60;;;;;;5005144;28;20042;-51
2022/10/17 14:20:30;;;;;;;9.90;5.35;;;25.90;80.30;;;;;;5006558;28;20524;-53
2022/10/17 14:22:58;;;;;;;7.35;4.72;;;25.70;80.30;;;;;;5001038;28;20054;-52
2022/10/17 14:25:38;;;;;;;9.30;5.20;;;25.60;80.80;;;;;;4976964;28;20049;-57
2022/10/17 14:28:11;;;;;;;9.95;5.32;;;25.60;81.20;;;;;;5008239;28;20092;-56
2022/10/17 14:30:41;;;;;;;10.45;6.78;;;25.50;81.40;;;;;;5010715;28;20045;-55
2022/10/17 14:33:13;;;;;;;8.60;5.97;;;25.50;82.30;;;;;;5007551;28;20026;-56
2022/10/17 14:35:40;;;;;;;7.35;4.50;;;25.70;81.70;;;;;;5000486;28;20109;-61
2022/10/17 14:38:06;;;;;;;6.80;4.68;;;25.70;81.60;;;;;;4989884;28;20043;-59
2022/10/17 14:40:33;;;;;;;6.70;4.70;;;25.50;81.50;;;;;;4990724;28;20042;-59
2022/10/17 14:43:04;;;;;;;7.95;4.50;;;25.60;82.00;;;;;;4991251;28;20039;-61
2022/10/17 14:45:36;;;;;;;9.45;5.05;;;25.30;81.80;;;;;;5044508;28;20018;-54
2022/10/17 14:48:14;;;;;;;8.45;4.65;;;25.20;81.80;;;;;;5051892;28;20490;-58
2022/10/17 14:50:42;;;;;;;7.95;5.00;;;25.00;81.70;;;;;;5047238;28;20380;-59
2022/10/17 14:53:10;;;;;;;28.63;19.45;;;25.10;82.50;;;;;;5045342;28;20412;-55
2022/10/17 14:55:39;;;;;;;12.07;7.35;;;25.10;82.70;;;;;;5047842;28;20035;-65
2022/10/17 14:58:20;;;;;;;20.15;11.60;;;25.10;82.80;;;;;;5049959;28;20029;-58
2022/10/17 15:00:45;;;;;;;20.13;11.70;;;25.00;83.90;;;;;;5049744;28;20037;-58
2022/10/17 15:03:12;;;;;;;52.28;39.70;;;25.00;83.60;;;;;;5050404;28;20294;-55
2022/10/17 15:05:38;;;;;;;315.85;214.20;;;24.90;83.30;;;;;;5047358;28;20056;-59
2022/10/17 15:08:09;;;;;;;143.55;100.22;;;;;;;;;;5049681;28;20533;-58
2022/10/17 15:10:36;;;;;;;84.95;58.45;;;24.80;88.80;;;;;;5064939;28;20038;-59
2022/10/17 15:13:02;;;;;;;26.70;18.77;;;24.80;91.10;;;;;;5049913;28;20037;-55
2022/10/17 15:15:30;;;;;;;142.00;92.38;;;24.70;90.70;;;;;;5048710;28;20029;-59
2022/10/17 15:17:56;;;;;;;48.75;32.38;;;24.60;84.70;;;;;;5050547;28;20037;-58
2022/10/17 15:20:25;;;;;;;81.50;48.10;;;24.50;84.80;;;;;;5050802;28;20029;-59
2022/10/17 15:22:52;;;;;;;65.05;38.67;;;24.30;85.00;;;;;;5064263;28;20060;-63
2022/10/17 15:25:18;;;;;;;134.40;71.60;;;24.20;85.20;;;;;;5047254;28;20500;-60
2022/10/17 15:27:44;;;;;;;145.80;56.35;;;24.00;92.70;;;;;;5047370;28;20037;-58
2022/10/17 15:30:19;;;;;;;117.50;51.95;;;23.80;94.60;;;;;;5052033;28;20486;-60
2022/10/17 15:32:45;;;;;;;84.20;38.17;;;23.70;85.90;;;;;;5045414;28;20032;-61
2022/10/17 15:35:11;;;;;;;43.80;27.67;;;23.50;99.50;;;;;;5048769;28;20025;-58
2022/10/17 15:37:38;;;;;;;24.52;14.85;;;23.30;86.50;;;;;;5043641;28;20064;-61
2022/10/17 15:40:04;;;;;;;17.75;9.82;;;23.10;86.60;;;;;;5048490;28;20032;-61
2022/10/17 15:42:30;;;;;;;14.95;7.50;;;23.00;91.20;;;;;;5043375;28;20044;-63
2022/10/17 15:44:57;;;;;;;11.45;6.88;;;22.80;86.80;;;;;;5046717;28;20017;-56
2022/10/17 15:47:29;;;;;;;9.55;6.38;;;22.70;87.10;;;;;;5051849;28;20029;-58
2022/10/17 15:49:55;;;;;;;14.93;6.80;;;22.50;90.30;;;;;;5062202;28;20086;-60
2022/10/17 15:52:22;;;;;;;11.23;7.70;;;22.20;87.80;;;;;;5048352;28;20037;-59
2022/10/17 15:54:48;;;;;;;60.13;44.22;;;22.00;95.10;;;;;;5051310;28;20033;-59
2022/10/17 15:57:17;;;;;;;269.35;127.80;;;;;;;;;;5049865;28;20024;-59
2022/10/17 15:59:45;;;;;;;103.75;53.95;;;21.80;97.30;;;;;;5044389;28;20033;-60
2022/10/17 16:02:15;;;;;;;36.95;22.15;;;;;;;;;;5049420;28;20048;-57
2022/10/17 16:04:40;;;;;;;32.28;19.33;;;21.60;94.30;;;;;;5048708;28;20103;-58
2022/10/17 16:07:06;;;;;;;288.15;116.68;;;21.40;89.50;;;;;;5049048;28;20437;-59
2022/10/17 16:09:33;;;;;;;332.38;145.80;;;21.30;89.70;;;;;;5050341;28;20102;-59
2022/10/17 16:12:00;;;;;;;250.60;120.80;;;21.20;90.00;;;;;;5050805;28;20025;-58
2022/10/17 16:14:26;;;;;;;228.98;111.75;;;21.10;90.10;;;;;;5046883;28;20026;-58
2022/10/17 16:16:52;;;;;;;118.60;64.10;;;21.10;90.20;;;;;;5051172;28;20142;-55
2022/10/17 16:19:17;;;;;;;98.35;50.13;;;21.00;90.20;;;;;;5049227;28;20511;-61
2022/10/17 16:21:43;;;;;;;85.80;48.83;;;20.90;90.40;;;;;;5049648;28;20033;-57
2022/10/17 16:24:11;;;;;;;103.40;57.42;;;20.90;90.40;;;;;;5048348;28;20029;-56
2022/10/17 16:26:40;;;;;;;56.63;35.88;;;20.80;90.40;;;;;;5051960;28;20025;-58
2022/10/17 16:29:06;;;;;;;38.10;23.95;;;20.80;90.50;;;;;;5044681;28;20028;-57
2022/10/17 16:31:34;;;;;;;36.28;17.83;;;20.70;90.90;;;;;;5051984;28;20040;-59
2022/10/17 16:34:02;;;;;;;27.60;16.30;;;20.60;90.80;;;;;;5054125;28;20030;-60
2022/10/17 16:36:28;;;;;;;19.90;13.55;;;20.50;91.10;;;;;;5054247;28;20043;-58
2022/10/17 16:38:54;;;;;;;20.30;13.15;;;20.30;91.10;;;;;;5049696;28;20108;-60
2022/10/17 16:41:32;;;;;;;26.85;13.23;;;20.20;91.40;;;;;;5053971;28;20017;-61
2022/10/17 16:43:59;;;;;;;26.95;12.80;;;20.30;95.90;;;;;;5049447;28;20090;-62
2022/10/17 16:46:27;;;;;;;16.80;11.43;;;20.20;91.40;;;;;;5049329;28;20029;-59
2022/10/17 16:48:53;;;;;;;22.23;12.57;;;20.20;91.40;;;;;;5053529;28;20094;-60
2022/10/17 16:51:20;;;;;;;19.55;11.85;;;20.20;99.90;;;;;;5065700;28;20064;-59
2022/10/17 16:53:49;;;;;;;23.77;14.20;;;20.00;91.80;;;;;;5048701;28;20053;-61
2022/10/17 16:56:16;;;;;;;20.55;14.57;;;;;;;;;;5053979;28;20033;-57
2022/10/17 16:58:43;;;;;;;21.73;15.88;;;19.50;99.90;;;;;;5047597;28;20492;-62
2022/10/17 17:01:15;;;;;;;21.02;16.15;;;19.80;92.20;;;;;;5054531;28;20032;-59
2022/10/17 17:03:42;;;;;;;24.00;17.35;;;19.60;92.30;;;;;;5052623;28;20056;-56
2022/10/17 17:06:12;;;;;;;28.85;18.65;;;19.40;92.60;;;;;;5049765;28;20524;-57
2022/10/17 17:08:39;;;;;;;31.08;19.27;;;19.40;92.60;;;;;;5054598;28;20488;-57
2022/10/17 17:11:09;;;;;;;44.38;30.75;;;;;;;;;;5053334;28;20504;-58
2022/10/17 17:13:35;;;;;;;45.50;29.00;;;19.00;93.20;;;;;;5052677;28;20044;-59
2022/10/17 17:16:04;;;;;;;42.83;25.83;;;18.80;93.70;;;;;;5053169;28;20041;-60
2022/10/17 17:18:30;;;;;;;48.72;30.17;;;18.80;93.90;;;;;;5067665;28;20040;-61
2022/10/17 17:21:01;;;;;;;45.97;29.35;;;18.80;93.90;;;;;;5051393;28;20068;-56
2022/10/17 17:23:28;;;;;;;42.38;26.73;;;18.90;94.00;;;;;;5045608;28;20041;-58
2022/10/17 17:26:02;;;;;;;39.70;26.52;;;18.80;94.00;;;;;;5052264;28;20116;-59
2022/10/17 17:28:29;;;;;;;35.97;26.20;;;18.80;94.30;;;;;;5051475;28;20033;-58
2022/10/17 17:30:55;;;;;;;36.60;25.10;;;18.80;94.40;;;;;;5053334;28;20032;-59
2022/10/17 17:33:22;;;;;;;41.65;23.42;;;18.70;94.50;;;;;;5049456;28;20040;-58
2022/10/17 17:35:53;;;;;;;33.03;21.20;;;;;;;;;;5048294;28;20476;-58
2022/10/17 17:38:19;;;;;;;28.03;17.87;;;18.70;99.90;;;;;;5052022;28;20040;-56
2022/10/17 17:40:45;;;;;;;25.02;17.35;;;18.60;99.90;;;;;;5052939;28;20029;-58
2022/10/17 17:43:11;;;;;;;33.28;19.23;;;18.40;97.40;;;;;;5053950;28;20080;-59
2022/10/17 17:45:37;;;;;;;31.98;20.15;;;;;;;;;;5048533;28;20029;-56
2022/10/17 17:48:03;;;;;;;39.85;22.27;;;18.30;94.50;;;;;;5052990;28;20037;-59
2022/10/17 17:50:29;;;;;;;40.85;22.95;;;18.30;94.70;;;;;;5050873;28;20033;-55
2022/10/17 17:52:55;;;;;;;36.08;23.20;;;18.30;94.90;;;;;;5051866;28;20075;-55
2022/10/17 17:55:20;;;;;;;43.65;25.95;;;18.20;94.90;;;;;;5053294;28;20833;-57
2022/10/17 17:57:46;;;;;;;46.60;28.70;;;18.20;95.10;;;;;;5051805;28;20061;-58
2022/10/17 18:00:12;;;;;;;47.15;28.50;;;18.20;95.00;;;;;;5064630;28;20025;-55
2022/10/17 18:02:38;;;;;;;46.90;28.17;;;18.10;95.10;;;;;;5061340;28;20049;-58
2022/10/17 18:05:04;;;;;;;45.28;29.17;;;18.10;95.00;;;;;;5052698;28;20025;-58
2022/10/17 18:07:30;;;;;;;43.17;27.73;;;18.00;95.10;;;;;;5047924;28;20469;-58
2022/10/17 18:09:56;;;;;;;48.35;28.63;;;18.00;95.10;;;;;;5044528;28;20110;-56
2022/10/17 18:12:22;;;;;;;44.58;27.08;;;18.00;97.30;;;;;;5048672;28;20176;-58
2022/10/17 18:14:47;;;;;;;60.55;37.30;;;17.90;99.90;;;;;;5052198;28;20021;-58
2022/10/17 18:17:13;;;;;;;50.63;34.92;;;17.80;99.90;;;;;;5049887;28;20057;-57
2022/10/17 18:19:39;;;;;;;48.72;32.78;;;17.70;99.50;;;;;;5050638;28;20021;-59
2022/10/17 18:22:05;;;;;;;57.53;37.75;;;17.30;96.20;;;;;;5051764;28;20060;-58
2022/10/17 18:24:31;;;;;;;107.78;64.57;;;17.40;99.90;;;;;;5043980;28;20033;-58
2022/10/17 18:26:58;;;;;;;64.15;44.05;;;17.40;99.90;;;;;;5049644;28;20057;-55
2022/10/17 18:29:25;;;;;;;49.03;33.33;;;17.30;99.90;;;;;;5050360;28;20119;-58
2022/10/17 18:31:51;;;;;;;38.42;24.27;;;17.30;99.90;;;;;;5054209;28;20033;-58
2022/10/17 18:34:17;;;;;;;40.05;25.23;;;16.80;97.10;;;;;;5015401;28;20399;-56
2022/10/17 18:36:42;;;;;;;31.95;22.85;;;16.60;97.60;;;;;;5049468;28;20598;-57
2022/10/17 18:39:08;;;;;;;30.83;22.60;;;16.60;98.00;;;;;;5052042;28;20021;-58
2022/10/17 18:41:34;;;;;;;31.38;23.60;;;16.40;98.50;;;;;;5046156;28;20031;-57
2022/10/17 18:44:01;;;;;;;32.65;23.95;;;16.40;98.60;;;;;;5051028;28;20032;-57
2022/10/17 18:46:39;;;;;;;35.13;23.70;;;16.40;98.70;;;;;;5063170;28;20122;-55
2022/10/17 18:49:09;;;;;;;33.03;23.38;;;16.30;99.00;;;;;;5047135;28;20043;-55